createdAt,value
2022-12-26T00:00:16.688Z,1002.33
2022-12-26T00:00:49.181Z,1002.31
2022-12-26T00:01:21.719Z,1002.23
2022-12-26T00:01:54.234Z,1002.21
2022-12-26T00:02:26.705Z,1002.17
2022-12-26T00:02:59.323Z,1002.14
2022-12-26T00:03:31.715Z,1002.12
2022-12-26T00:04:04.137Z,1002.14
2022-12-26T00:04:50.728Z,1002.12
2022-12-26T00:05:08.941Z,1002.13
2022-12-26T00:05:41.385Z,1002.13
2022-12-26T00:06:13.834Z,1002.13
2022-12-26T00:06:46.326Z,1002.12
2022-12-26T00:07:18.858Z,1002.15
2022-12-26T00:07:51.358Z,1002.16
2022-12-26T00:08:23.855Z,1002.18
2022-12-26T00:08:56.360Z,1002.21
2022-12-26T00:09:28.831Z,1002.25
2022-12-26T00:10:01.302Z,1002.29
2022-12-26T00:10:33.796Z,1002.31
2022-12-26T00:11:06.297Z,1002.33
2022-12-26T00:11:38.815Z,1002.32
2022-12-26T00:12:11.311Z,1002.31
2022-12-26T00:12:43.853Z,1002.30
2022-12-26T00:13:38.830Z,1002.31
2022-12-26T00:13:48.809Z,1002.31
2022-12-26T00:14:21.254Z,1002.31
2022-12-26T00:14:53.661Z,1002.34
2022-12-26T00:15:26.174Z,1002.36
2022-12-26T00:15:58.626Z,1002.36
2022-12-26T00:16:31.134Z,1002.36
2022-12-26T00:17:03.618Z,1002.34
2022-12-26T00:17:36.094Z,1002.33
2022-12-26T00:18:08.549Z,1002.30
2022-12-26T00:18:41.049Z,1002.31
2022-12-26T00:19:13.504Z,1002.30
2022-12-26T00:19:45.918Z,1002.30
2022-12-26T00:20:18.481Z,1002.28
2022-12-26T00:20:50.978Z,1002.30
2022-12-26T00:21:23.482Z,1002.29
2022-12-26T00:21:55.971Z,1002.27
2022-12-26T00:22:28.477Z,1002.26
2022-12-26T00:23:00.920Z,1002.25
2022-12-26T00:23:33.336Z,1002.26
2022-12-26T00:24:05.797Z,1002.28
2022-12-26T00:24:38.220Z,1002.32
2022-12-26T00:25:10.668Z,1002.33
2022-12-26T00:25:43.111Z,1002.32
2022-12-26T00:26:15.558Z,1002.31
2022-12-26T00:26:47.985Z,1002.32
2022-12-26T00:27:20.438Z,1002.31
2022-12-26T00:27:52.855Z,1002.32
2022-12-26T00:28:25.358Z,1002.35
2022-12-26T00:28:57.866Z,1002.35
2022-12-26T00:29:30.298Z,1002.37
2022-12-26T00:30:02.738Z,1002.39
2022-12-26T00:30:35.176Z,1002.39
2022-12-26T00:31:07.784Z,1002.41
2022-12-26T00:31:40.352Z,1002.39
2022-12-26T00:32:12.762Z,1002.38
2022-12-26T00:32:45.167Z,1002.37
2022-12-26T00:33:17.595Z,1002.38
2022-12-26T00:33:50.052Z,1002.39
2022-12-26T00:34:22.527Z,1002.40
2022-12-26T00:34:55.050Z,1002.39
2022-12-26T00:35:27.492Z,1002.38
2022-12-26T00:36:00.090Z,1002.37
2022-12-26T00:36:32.574Z,1002.35
2022-12-26T00:37:05.093Z,1002.37
2022-12-26T00:37:37.564Z,1002.35
2022-12-26T00:38:10.194Z,1002.34
2022-12-26T00:38:42.660Z,1002.31
2022-12-26T00:39:15.150Z,1002.31
2022-12-26T00:39:47.634Z,1002.31
2022-12-26T00:40:20.123Z,1002.30
2022-12-26T00:40:52.614Z,1002.32
2022-12-26T00:41:25.041Z,1002.33
2022-12-26T00:41:57.457Z,1002.32
2022-12-26T00:42:29.903Z,1002.33
2022-12-26T00:43:02.347Z,1002.32
2022-12-26T00:43:34.792Z,1002.33
2022-12-26T00:44:07.287Z,1002.34
2022-12-26T00:44:39.705Z,1002.36
2022-12-26T00:45:12.264Z,1002.39
2022-12-26T00:45:44.750Z,1002.39
2022-12-26T00:46:17.280Z,1002.38
2022-12-26T00:46:49.794Z,1002.37
2022-12-26T00:47:22.212Z,1002.35
2022-12-26T00:47:54.695Z,1002.33
2022-12-26T00:48:27.195Z,1002.33
2022-12-26T00:48:59.660Z,1002.31
2022-12-26T00:50:11.445Z,1002.31
2022-12-26T00:50:11.633Z,1002.31
2022-12-26T00:50:37.145Z,1002.31
2022-12-26T00:51:09.583Z,1002.32
2022-12-26T00:51:42.095Z,1002.32
2022-12-26T00:52:14.584Z,1002.31
2022-12-26T00:52:47.039Z,1002.34
2022-12-26T00:53:19.521Z,1002.35
2022-12-26T00:53:52.031Z,1002.38
2022-12-26T00:54:24.474Z,1002.37
2022-12-26T00:54:56.942Z,1002.40
2022-12-26T00:55:29.384Z,1002.43
2022-12-26T00:56:01.872Z,1002.47
2022-12-26T00:56:34.347Z,1002.48
2022-12-26T00:57:06.784Z,1002.52
2022-12-26T00:57:39.258Z,1002.52
2022-12-26T00:58:11.708Z,1002.50
2022-12-26T00:58:44.185Z,1002.49
2022-12-26T00:59:16.572Z,1002.47
2022-12-26T00:59:49.026Z,1002.47
2022-12-26T01:00:21.443Z,1002.43
2022-12-26T01:00:54.006Z,1002.45
2022-12-26T01:01:26.648Z,1002.45
2022-12-26T01:01:59.166Z,1002.45
2022-12-26T01:02:31.675Z,1002.46
2022-12-26T01:03:04.050Z,1002.48
2022-12-26T01:03:36.365Z,1002.47
2022-12-26T01:04:08.788Z,1002.46
2022-12-26T01:04:41.374Z,1002.46
2022-12-26T01:05:13.875Z,1002.46
2022-12-26T01:05:46.415Z,1002.45
2022-12-26T01:06:18.905Z,1002.47
2022-12-26T01:06:51.319Z,1002.49
2022-12-26T01:07:23.745Z,1002.52
2022-12-26T01:08:22.986Z,1002.52
2022-12-26T01:08:28.643Z,1002.53
2022-12-26T01:09:01.147Z,1002.53
2022-12-26T01:09:33.626Z,1002.50
2022-12-26T01:10:06.120Z,1002.48
2022-12-26T01:10:38.569Z,1002.47
2022-12-26T01:11:10.994Z,1002.49
2022-12-26T01:11:43.551Z,1002.55
2022-12-26T01:12:16.042Z,1002.58
2022-12-26T01:12:48.467Z,1002.62
2022-12-26T01:13:20.896Z,1002.61
2022-12-26T01:13:53.331Z,1002.60
2022-12-26T01:14:25.767Z,1002.58
2022-12-26T01:14:58.252Z,1002.53
2022-12-26T01:15:30.753Z,1002.53
2022-12-26T01:16:03.299Z,1002.53
2022-12-26T01:16:35.821Z,1002.56
2022-12-26T01:17:08.256Z,1002.59
2022-12-26T01:17:40.753Z,1002.60
2022-12-26T01:18:13.233Z,1002.64
2022-12-26T01:18:45.725Z,1002.63
2022-12-26T01:19:18.235Z,1002.64
2022-12-26T01:19:50.776Z,1002.66
2022-12-26T01:20:23.260Z,1002.66
2022-12-26T01:20:55.761Z,1002.68
2022-12-26T01:21:28.225Z,1002.69
2022-12-26T01:22:00.662Z,1002.69
2022-12-26T01:22:33.082Z,1002.70
2022-12-26T01:23:05.524Z,1002.71
2022-12-26T01:23:38.077Z,1002.72
2022-12-26T01:24:10.553Z,1002.72
2022-12-26T01:24:43.024Z,1002.73
2022-12-26T01:25:15.505Z,1002.72
2022-12-26T01:26:16.574Z,1002.74
2022-12-26T01:26:20.459Z,1002.74
2022-12-26T01:26:52.866Z,1002.72
2022-12-26T01:27:25.335Z,1002.71
2022-12-26T01:27:57.835Z,1002.71
2022-12-26T01:28:30.311Z,1002.67
2022-12-26T01:29:02.779Z,1002.64
2022-12-26T01:29:35.232Z,1002.64
2022-12-26T01:30:07.770Z,1002.64
2022-12-26T01:30:40.252Z,1002.64
2022-12-26T01:31:12.821Z,1002.64
2022-12-26T01:31:45.240Z,1002.65
2022-12-26T01:32:17.658Z,1002.67
2022-12-26T01:32:50.112Z,1002.68
2022-12-26T01:33:22.544Z,1002.67
2022-12-26T01:33:55.015Z,1002.66
2022-12-26T01:34:27.512Z,1002.65
2022-12-26T01:34:59.930Z,1002.63
2022-12-26T01:35:32.376Z,1002.62
2022-12-26T01:36:04.807Z,1002.65
2022-12-26T01:36:37.298Z,1002.68
2022-12-26T01:37:09.789Z,1002.70
2022-12-26T01:37:42.228Z,1002.71
2022-12-26T01:38:14.669Z,1002.72
2022-12-26T01:38:47.156Z,1002.71
2022-12-26T01:39:19.607Z,1002.70
2022-12-26T01:39:52.050Z,1002.70
2022-12-26T01:40:24.468Z,1002.70
2022-12-26T01:40:56.948Z,1002.70
2022-12-26T01:41:29.422Z,1002.74
2022-12-26T01:42:01.863Z,1002.80
2022-12-26T01:42:34.414Z,1002.82
2022-12-26T01:43:06.827Z,1002.81
2022-12-26T01:43:39.234Z,1002.80
2022-12-26T01:44:11.727Z,1002.77
2022-12-26T01:44:44.183Z,1002.75
2022-12-26T01:45:16.602Z,1002.73
2022-12-26T01:45:49.239Z,1002.72
2022-12-26T01:46:21.745Z,1002.74
2022-12-26T01:46:54.219Z,1002.74
2022-12-26T01:47:26.700Z,1002.78
2022-12-26T01:47:59.152Z,1002.83
2022-12-26T01:48:31.575Z,1002.84
2022-12-26T01:49:04.007Z,1002.87
2022-12-26T01:49:36.440Z,1002.88
2022-12-26T01:50:08.879Z,1002.88
2022-12-26T01:50:41.348Z,1002.87
2022-12-26T01:51:13.828Z,1002.86
2022-12-26T01:51:46.369Z,1002.86
2022-12-26T01:52:18.832Z,1002.84
2022-12-26T01:52:51.409Z,1002.83
2022-12-26T01:53:23.887Z,1002.81
2022-12-26T01:53:56.335Z,1002.78
2022-12-26T01:54:39.491Z,1002.75
2022-12-26T01:55:01.246Z,1002.70
2022-12-26T01:55:33.753Z,1002.70
2022-12-26T01:56:06.193Z,1002.68
2022-12-26T01:56:38.638Z,1002.69
2022-12-26T01:57:11.078Z,1002.73
2022-12-26T01:57:43.513Z,1002.75
2022-12-26T01:58:16.011Z,1002.79
2022-12-26T01:58:48.557Z,1002.83
2022-12-26T01:59:21.037Z,1002.83
2022-12-26T01:59:53.562Z,1002.80
2022-12-26T02:00:26.008Z,1002.79
2022-12-26T02:00:58.557Z,1002.77
2022-12-26T02:01:31.101Z,1002.74
2022-12-26T02:02:03.566Z,1002.73
2022-12-26T02:02:35.907Z,1002.71
2022-12-26T02:03:08.409Z,1002.75
2022-12-26T02:03:40.803Z,1002.76
2022-12-26T02:04:13.243Z,1002.77
2022-12-26T02:04:45.688Z,1002.78
2022-12-26T02:05:18.133Z,1002.76
2022-12-26T02:05:50.567Z,1002.73
2022-12-26T02:06:23.016Z,1002.74
2022-12-26T02:06:55.452Z,1002.73
2022-12-26T02:07:27.972Z,1002.70
2022-12-26T02:08:00.483Z,1002.71
2022-12-26T02:08:32.993Z,1002.72
2022-12-26T02:09:05.495Z,1002.74
2022-12-26T02:09:38.009Z,1002.76
2022-12-26T02:10:10.493Z,1002.76
2022-12-26T02:10:43.026Z,1002.76
2022-12-26T02:11:15.451Z,1002.74
2022-12-26T02:11:47.930Z,1002.74
2022-12-26T02:12:35.457Z,1002.73
2022-12-26T02:12:52.853Z,1002.71
2022-12-26T02:13:25.320Z,1002.71
2022-12-26T02:13:57.736Z,1002.69
2022-12-26T02:14:30.186Z,1002.68
2022-12-26T02:15:02.601Z,1002.70
2022-12-26T02:15:35.099Z,1002.70
2022-12-26T02:16:07.549Z,1002.74
2022-12-26T02:16:40.036Z,1002.76
2022-12-26T02:17:12.477Z,1002.77
2022-12-26T02:17:45.016Z,1002.79
2022-12-26T02:18:17.446Z,1002.81
2022-12-26T02:18:49.886Z,1002.80
2022-12-26T02:19:22.398Z,1002.78
2022-12-26T02:19:54.922Z,1002.80
2022-12-26T02:20:27.460Z,1002.79
2022-12-26T02:20:59.955Z,1002.82
2022-12-26T02:21:32.382Z,1002.86
2022-12-26T02:22:04.875Z,1002.89
2022-12-26T02:22:37.365Z,1002.91
2022-12-26T02:23:09.859Z,1002.95
2022-12-26T02:23:42.355Z,1002.95
2022-12-26T02:24:14.785Z,1002.97
2022-12-26T02:24:47.289Z,1002.98
2022-12-26T02:25:19.734Z,1002.99
2022-12-26T02:25:52.158Z,1003.00
2022-12-26T02:26:24.668Z,1003.03
2022-12-26T02:26:57.165Z,1003.03
2022-12-26T02:27:29.653Z,1003.04
2022-12-26T02:28:02.137Z,1003.06
2022-12-26T02:28:34.672Z,1003.06
2022-12-26T02:29:07.155Z,1003.05
2022-12-26T02:29:39.647Z,1003.04
2022-12-26T02:30:12.135Z,1003.02
2022-12-26T02:30:44.633Z,1002.97
2022-12-26T02:31:17.129Z,1002.97
2022-12-26T02:31:49.622Z,1002.94
2022-12-26T02:32:22.036Z,1002.95
2022-12-26T02:32:54.467Z,1002.96
2022-12-26T02:33:26.912Z,1002.97
2022-12-26T02:33:59.317Z,1003.02
2022-12-26T02:34:31.762Z,1003.05
2022-12-26T02:35:04.201Z,1003.10
2022-12-26T02:35:36.764Z,1003.10
2022-12-26T02:36:09.262Z,1003.11
2022-12-26T02:36:41.685Z,1003.10
2022-12-26T02:37:14.182Z,1003.08
2022-12-26T02:37:46.720Z,1003.07
2022-12-26T02:38:19.153Z,1003.07
2022-12-26T02:38:51.597Z,1003.04
2022-12-26T02:39:44.238Z,1003.05
2022-12-26T02:39:56.457Z,1003.05
2022-12-26T02:40:28.915Z,1003.07
2022-12-26T02:41:01.363Z,1003.07
2022-12-26T02:41:33.770Z,1003.05
2022-12-26T02:42:06.231Z,1003.04
2022-12-26T02:42:38.686Z,1003.05
2022-12-26T02:43:11.221Z,1003.03
2022-12-26T02:43:43.703Z,1003.03
2022-12-26T02:44:16.133Z,1003.03
2022-12-26T02:44:48.606Z,1002.99
2022-12-26T02:45:21.030Z,1002.99
2022-12-26T02:45:53.507Z,1003.00
2022-12-26T02:46:26.060Z,1003.01
2022-12-26T02:46:58.493Z,1002.99
2022-12-26T02:47:30.993Z,1002.96
2022-12-26T02:48:03.494Z,1002.96
2022-12-26T02:48:35.991Z,1002.95
2022-12-26T02:49:08.571Z,1002.94
2022-12-26T02:49:41.027Z,1002.95
2022-12-26T02:50:13.559Z,1002.93
2022-12-26T02:50:46.100Z,1002.93
2022-12-26T02:51:18.649Z,1002.92
2022-12-26T02:51:51.075Z,1002.92
2022-12-26T02:52:23.534Z,1002.90
2022-12-26T02:52:56.018Z,1002.90
2022-12-26T02:53:28.536Z,1002.90
2022-12-26T02:54:01.034Z,1002.91
2022-12-26T02:54:33.558Z,1002.91
2022-12-26T02:55:06.031Z,1002.93
2022-12-26T02:55:38.470Z,1002.95
2022-12-26T02:56:10.905Z,1002.96
2022-12-26T02:56:43.419Z,1003.01
2022-12-26T02:57:15.993Z,1003.03
2022-12-26T02:57:48.428Z,1003.06
2022-12-26T02:58:20.899Z,1003.07
2022-12-26T02:58:53.472Z,1003.07
2022-12-26T02:59:55.843Z,1003.05
2022-12-26T02:59:58.434Z,1003.04
2022-12-26T03:00:30.889Z,1003.04
2022-12-26T03:01:03.485Z,1003.08
2022-12-26T03:01:35.900Z,1003.09
2022-12-26T03:02:08.437Z,1003.09
2022-12-26T03:02:40.974Z,1003.10
2022-12-26T03:03:13.322Z,1003.07
2022-12-26T03:03:45.790Z,1003.06
2022-12-26T03:04:18.256Z,1003.04
2022-12-26T03:04:50.743Z,1003.06
2022-12-26T03:05:23.253Z,1003.07
2022-12-26T03:05:55.757Z,1003.06
2022-12-26T03:06:28.296Z,1003.03
2022-12-26T03:07:00.731Z,1003.01
2022-12-26T03:07:33.178Z,1003.02
2022-12-26T03:08:05.611Z,1003.02
2022-12-26T03:08:38.049Z,1003.02
2022-12-26T03:09:10.464Z,1003.01
2022-12-26T03:09:42.925Z,1003.00
2022-12-26T03:10:15.475Z,1003.01
2022-12-26T03:10:47.921Z,1003.00
2022-12-26T03:11:20.418Z,1003.00
2022-12-26T03:11:52.917Z,1002.99
2022-12-26T03:12:25.442Z,1002.98
2022-12-26T03:12:57.911Z,1002.99
2022-12-26T03:13:30.361Z,1002.98
2022-12-26T03:14:02.895Z,1002.96
2022-12-26T03:14:35.387Z,1002.97
2022-12-26T03:15:07.903Z,1002.97
2022-12-26T03:15:40.404Z,1002.95
2022-12-26T03:16:12.955Z,1002.96
2022-12-26T03:16:45.502Z,1002.96
2022-12-26T03:17:17.961Z,1002.98
2022-12-26T03:17:50.429Z,1002.97
2022-12-26T03:18:56.975Z,1002.96
2022-12-26T03:18:58.735Z,1002.97
2022-12-26T03:19:27.869Z,1002.95
2022-12-26T03:20:00.424Z,1002.95
2022-12-26T03:20:32.804Z,1002.97
2022-12-26T03:21:05.285Z,1003.00
2022-12-26T03:21:37.789Z,1003.00
2022-12-26T03:22:10.300Z,1002.99
2022-12-26T03:22:42.738Z,1003.00
2022-12-26T03:23:15.182Z,1003.01
2022-12-26T03:23:47.680Z,1003.02
2022-12-26T03:24:20.232Z,1002.99
2022-12-26T03:24:52.700Z,1003.03
2022-12-26T03:25:25.133Z,1003.05
2022-12-26T03:25:57.604Z,1003.04
2022-12-26T03:26:30.049Z,1003.01
2022-12-26T03:27:02.558Z,1003.05
2022-12-26T03:27:35.043Z,1003.06
2022-12-26T03:28:07.555Z,1003.06
2022-12-26T03:28:40.092Z,1003.12
2022-12-26T03:29:18.608Z,1003.12
2022-12-26T03:29:45.117Z,1003.15
2022-12-26T03:30:17.667Z,1003.17
2022-12-26T03:30:50.263Z,1003.18
2022-12-26T03:31:22.714Z,1003.17
2022-12-26T03:31:55.123Z,1003.17
2022-12-26T03:32:27.646Z,1003.17
2022-12-26T03:33:00.115Z,1003.18
2022-12-26T03:33:32.555Z,1003.16
2022-12-26T03:34:05.021Z,1003.13
2022-12-26T03:34:37.472Z,1003.14
2022-12-26T03:35:09.955Z,1003.13
2022-12-26T03:35:42.464Z,1003.11
2022-12-26T03:36:15.018Z,1003.12
2022-12-26T03:36:47.520Z,1003.11
2022-12-26T03:37:20.054Z,1003.10
2022-12-26T03:37:52.496Z,1003.07
2022-12-26T03:38:24.973Z,1003.09
2022-12-26T03:38:57.474Z,1003.05
2022-12-26T03:39:30.037Z,1003.06
2022-12-26T03:40:02.427Z,1003.06
2022-12-26T03:40:34.937Z,1003.07
2022-12-26T03:41:07.426Z,1003.09
2022-12-26T03:41:39.857Z,1003.09
2022-12-26T03:42:12.334Z,1003.07
2022-12-26T03:42:44.793Z,1003.08
2022-12-26T03:43:17.233Z,1003.05
2022-12-26T03:43:49.783Z,1003.09
2022-12-26T03:44:22.230Z,1003.11
2022-12-26T03:44:54.731Z,1003.11
2022-12-26T03:45:27.207Z,1003.14
2022-12-26T03:45:59.756Z,1003.14
2022-12-26T03:46:32.244Z,1003.14
2022-12-26T03:47:04.655Z,1003.17
2022-12-26T03:47:37.089Z,1003.20
2022-12-26T03:48:09.550Z,1003.21
2022-12-26T03:48:42.105Z,1003.20
2022-12-26T03:49:14.595Z,1003.19
2022-12-26T03:49:47.126Z,1003.18
2022-12-26T03:50:19.610Z,1003.16
2022-12-26T03:50:52.057Z,1003.14
2022-12-26T03:51:24.494Z,1003.16
2022-12-26T03:51:57.007Z,1003.13
2022-12-26T03:52:29.498Z,1003.10
2022-12-26T03:53:02.097Z,1003.14
2022-12-26T03:53:34.579Z,1003.13
2022-12-26T03:54:07.056Z,1003.16
2022-12-26T03:54:39.517Z,1003.17
2022-12-26T03:55:12.011Z,1003.16
2022-12-26T03:55:44.500Z,1003.15
2022-12-26T03:56:17.047Z,1003.18
2022-12-26T03:56:49.434Z,1003.17
2022-12-26T03:57:21.873Z,1003.17
2022-12-26T03:57:54.374Z,1003.19
2022-12-26T03:58:26.887Z,1003.18
2022-12-26T03:58:59.341Z,1003.17
2022-12-26T03:59:31.830Z,1003.19
2022-12-26T04:00:04.368Z,1003.18
2022-12-26T04:00:36.788Z,1003.19
2022-12-26T04:01:09.404Z,1003.19
2022-12-26T04:01:41.868Z,1003.20
2022-12-26T04:02:14.361Z,1003.21
2022-12-26T04:02:46.642Z,1003.21
2022-12-26T04:03:19.136Z,1003.21
2022-12-26T04:03:51.574Z,1003.20
2022-12-26T04:04:23.963Z,1003.22
2022-12-26T04:04:56.425Z,1003.23
2022-12-26T04:05:28.848Z,1003.24
2022-12-26T04:06:01.372Z,1003.24
2022-12-26T04:06:33.848Z,1003.25
2022-12-26T04:07:06.335Z,1003.28
2022-12-26T04:07:56.244Z,1003.27
2022-12-26T04:08:16.445Z,1003.26
2022-12-26T04:08:43.716Z,1003.31
2022-12-26T04:09:16.163Z,1003.29
2022-12-26T04:09:48.607Z,1003.28
2022-12-26T04:10:21.058Z,1003.26
2022-12-26T04:10:53.498Z,1003.25
2022-12-26T04:11:25.950Z,1003.23
2022-12-26T04:11:58.381Z,1003.21
2022-12-26T04:12:30.838Z,1003.18
2022-12-26T04:13:03.324Z,1003.15
2022-12-26T04:13:35.724Z,1003.14
2022-12-26T04:14:08.270Z,1003.15
2022-12-26T04:14:40.732Z,1003.13
2022-12-26T04:15:13.282Z,1003.11
2022-12-26T04:15:45.826Z,1003.10
2022-12-26T04:16:18.325Z,1003.13
2022-12-26T04:16:50.774Z,1003.08
2022-12-26T04:17:23.261Z,1003.07
2022-12-26T04:17:55.793Z,1003.05
2022-12-26T04:18:28.281Z,1003.05
2022-12-26T04:19:00.803Z,1003.04
2022-12-26T04:19:33.288Z,1003.07
2022-12-26T04:20:05.823Z,1003.04
2022-12-26T04:20:38.292Z,1003.03
2022-12-26T04:21:10.784Z,1003.02
2022-12-26T04:21:43.274Z,1003.02
2022-12-26T04:22:15.772Z,1003.03
2022-12-26T04:22:48.272Z,1003.01
2022-12-26T04:23:20.773Z,1003.01
2022-12-26T04:23:53.205Z,1003.02
2022-12-26T04:24:25.635Z,1003.01
2022-12-26T04:24:58.179Z,1003.03
2022-12-26T04:25:50.786Z,1003.04
2022-12-26T04:26:03.184Z,1003.07
2022-12-26T04:26:35.777Z,1003.04
2022-12-26T04:27:08.269Z,1003.06
2022-12-26T04:27:40.801Z,1003.07
2022-12-26T04:28:13.266Z,1003.08
2022-12-26T04:28:45.712Z,1003.07
2022-12-26T04:29:18.149Z,1003.12
2022-12-26T04:29:50.592Z,1003.15
2022-12-26T04:30:23.029Z,1003.14
2022-12-26T04:30:55.499Z,1003.17
2022-12-26T04:31:28.035Z,1003.15
2022-12-26T04:32:00.466Z,1003.17
2022-12-26T04:32:33.042Z,1003.15
2022-12-26T04:33:05.529Z,1003.17
2022-12-26T04:33:37.986Z,1003.19
2022-12-26T04:34:10.481Z,1003.21
2022-12-26T04:34:42.976Z,1003.21
2022-12-26T04:35:15.466Z,1003.22
2022-12-26T04:35:47.992Z,1003.23
2022-12-26T04:36:20.526Z,1003.26
2022-12-26T04:36:52.999Z,1003.28
2022-12-26T04:37:25.443Z,1003.29
2022-12-26T04:37:57.898Z,1003.31
2022-12-26T04:38:30.369Z,1003.31
2022-12-26T04:39:02.801Z,1003.25
2022-12-26T04:39:35.312Z,1003.30
2022-12-26T04:40:07.948Z,1003.33
2022-12-26T04:40:40.369Z,1003.32
2022-12-26T04:41:12.942Z,1003.35
2022-12-26T04:41:45.457Z,1003.35
2022-12-26T04:42:17.891Z,1003.39
2022-12-26T04:42:50.313Z,1003.41
2022-12-26T04:43:47.297Z,1003.42
2022-12-26T04:43:55.249Z,1003.41
2022-12-26T04:44:27.765Z,1003.40
2022-12-26T04:45:00.288Z,1003.41
2022-12-26T04:45:32.827Z,1003.41
2022-12-26T04:46:05.339Z,1003.41
2022-12-26T04:46:37.884Z,1003.39
2022-12-26T04:47:10.235Z,1003.39
2022-12-26T04:47:42.741Z,1003.39
2022-12-26T04:48:15.261Z,1003.39
2022-12-26T04:48:47.827Z,1003.39
2022-12-26T04:49:20.409Z,1003.42
2022-12-26T04:49:52.918Z,1003.37
2022-12-26T04:50:25.351Z,1003.36
2022-12-26T04:50:57.786Z,1003.32
2022-12-26T04:51:30.322Z,1003.34
2022-12-26T04:52:02.812Z,1003.36
2022-12-26T04:52:35.262Z,1003.40
2022-12-26T04:53:07.701Z,1003.39
2022-12-26T04:53:40.185Z,1003.39
2022-12-26T04:54:12.679Z,1003.39
2022-12-26T04:54:45.114Z,1003.42
2022-12-26T04:55:17.552Z,1003.39
2022-12-26T04:55:49.989Z,1003.40
2022-12-26T04:56:22.450Z,1003.42
2022-12-26T04:56:54.894Z,1003.49
2022-12-26T04:57:27.367Z,1003.46
2022-12-26T04:57:59.872Z,1003.50
2022-12-26T04:58:32.295Z,1003.52
2022-12-26T04:59:04.757Z,1003.53
2022-12-26T04:59:37.164Z,1003.57
2022-12-26T05:00:09.600Z,1003.57
2022-12-26T05:00:42.099Z,1003.57
2022-12-26T05:01:14.786Z,1003.58
2022-12-26T05:01:47.234Z,1003.57
2022-12-26T05:02:19.719Z,1003.58
2022-12-26T05:02:52.123Z,1003.60
2022-12-26T05:03:24.590Z,1003.60
2022-12-26T05:03:57.109Z,1003.59
2022-12-26T05:04:29.524Z,1003.60
2022-12-26T05:05:02.054Z,1003.59
2022-12-26T05:05:34.567Z,1003.60
2022-12-26T05:06:07.086Z,1003.58
2022-12-26T05:06:39.511Z,1003.56
2022-12-26T05:07:11.955Z,1003.54
2022-12-26T05:07:44.437Z,1003.54
2022-12-26T05:08:16.883Z,1003.52
2022-12-26T05:08:49.343Z,1003.52
2022-12-26T05:09:21.831Z,1003.55
2022-12-26T05:09:54.357Z,1003.57
2022-12-26T05:10:26.829Z,1003.60
2022-12-26T05:10:59.325Z,1003.58
2022-12-26T05:11:31.821Z,1003.56
2022-12-26T05:12:04.336Z,1003.55
2022-12-26T05:12:36.756Z,1003.57
2022-12-26T05:13:09.294Z,1003.56
2022-12-26T05:13:41.873Z,1003.57
2022-12-26T05:14:14.353Z,1003.61
2022-12-26T05:14:46.855Z,1003.63
2022-12-26T05:15:19.410Z,1003.67
2022-12-26T05:15:51.935Z,1003.63
2022-12-26T05:16:24.468Z,1003.63
2022-12-26T05:16:56.912Z,1003.64
2022-12-26T05:17:29.403Z,1003.63
2022-12-26T05:18:01.900Z,1003.61
2022-12-26T05:18:34.421Z,1003.62
2022-12-26T05:19:06.930Z,1003.65
2022-12-26T05:19:39.367Z,1003.67
2022-12-26T05:20:11.884Z,1003.72
2022-12-26T05:20:44.362Z,1003.76
2022-12-26T05:21:16.863Z,1003.79
2022-12-26T05:21:49.340Z,1003.77
2022-12-26T05:22:21.846Z,1003.81
2022-12-26T05:22:54.380Z,1003.78
2022-12-26T05:23:26.885Z,1003.78
2022-12-26T05:23:59.395Z,1003.76
2022-12-26T05:24:31.841Z,1003.77
2022-12-26T05:25:04.284Z,1003.76
2022-12-26T05:25:36.814Z,1003.74
2022-12-26T05:26:09.350Z,1003.73
2022-12-26T05:26:41.832Z,1003.71
2022-12-26T05:27:14.306Z,1003.68
2022-12-26T05:27:46.799Z,1003.63
2022-12-26T05:28:26.294Z,1003.63
2022-12-26T05:28:58.725Z,1003.64
2022-12-26T05:29:31.222Z,1003.65
2022-12-26T05:30:03.651Z,1003.65
2022-12-26T05:30:36.116Z,1003.68
2022-12-26T05:31:08.613Z,1003.67
2022-12-26T05:31:41.149Z,1003.67
2022-12-26T05:32:13.510Z,1003.64
2022-12-26T05:32:45.969Z,1003.65
2022-12-26T05:33:18.424Z,1003.64
2022-12-26T05:33:50.868Z,1003.62
2022-12-26T05:34:23.325Z,1003.62
2022-12-26T05:34:55.758Z,1003.62
2022-12-26T05:35:28.323Z,1003.60
2022-12-26T05:36:00.844Z,1003.57
2022-12-26T05:36:33.327Z,1003.59
2022-12-26T05:37:05.797Z,1003.62
2022-12-26T05:37:38.342Z,1003.61
2022-12-26T05:38:10.884Z,1003.61
2022-12-26T05:38:43.340Z,1003.61
2022-12-26T05:39:15.798Z,1003.60
2022-12-26T05:39:48.308Z,1003.58
2022-12-26T05:40:20.844Z,1003.59
2022-12-26T05:40:53.364Z,1003.59
2022-12-26T05:41:25.885Z,1003.64
2022-12-26T05:41:58.394Z,1003.61
2022-12-26T05:42:30.908Z,1003.63
2022-12-26T05:43:03.425Z,1003.65
2022-12-26T05:43:36.005Z,1003.64
2022-12-26T05:44:08.591Z,1003.65
2022-12-26T05:44:41.125Z,1003.62
2022-12-26T05:45:13.692Z,1003.60
2022-12-26T05:45:46.247Z,1003.63
2022-12-26T05:46:18.793Z,1003.61
2022-12-26T05:46:51.255Z,1003.62
2022-12-26T05:47:23.637Z,1003.62
2022-12-26T05:47:56.191Z,1003.62
2022-12-26T05:48:29.317Z,1003.62
2022-12-26T05:49:01.852Z,1003.67
2022-12-26T05:49:34.512Z,1003.69
2022-12-26T05:50:07.036Z,1003.71
2022-12-26T05:50:39.551Z,1003.74
2022-12-26T05:51:12.086Z,1003.76
2022-12-26T05:51:44.597Z,1003.78
2022-12-26T05:52:17.157Z,1003.79
2022-12-26T05:52:49.690Z,1003.82
2022-12-26T05:53:22.233Z,1003.81
2022-12-26T05:53:54.819Z,1003.81
2022-12-26T05:54:27.387Z,1003.82
2022-12-26T05:54:59.944Z,1003.83
2022-12-26T05:55:32.457Z,1003.83
2022-12-26T05:56:04.965Z,1003.83
2022-12-26T05:56:37.618Z,1003.84
2022-12-26T05:57:10.220Z,1003.84
2022-12-26T05:57:42.691Z,1003.85
2022-12-26T05:58:15.228Z,1003.87
2022-12-26T05:58:47.989Z,1003.88
2022-12-26T05:59:20.453Z,1003.88
2022-12-26T05:59:52.880Z,1003.92
2022-12-26T06:00:25.361Z,1003.93
2022-12-26T06:00:57.835Z,1003.95
2022-12-26T06:01:30.709Z,1003.95
2022-12-26T06:02:02.904Z,1003.94
2022-12-26T06:02:35.546Z,1003.93
2022-12-26T06:03:08.067Z,1003.91
2022-12-26T06:03:40.671Z,1003.90
2022-12-26T06:04:13.327Z,1003.87
2022-12-26T06:04:45.826Z,1003.86
2022-12-26T06:05:18.344Z,1003.83
2022-12-26T06:05:50.844Z,1003.82
2022-12-26T06:06:23.430Z,1003.83
2022-12-26T06:06:55.920Z,1003.86
2022-12-26T06:07:28.369Z,1003.89
2022-12-26T06:08:00.885Z,1003.90
2022-12-26T06:08:33.473Z,1003.86
2022-12-26T06:09:05.945Z,1003.90
2022-12-26T06:09:38.416Z,1003.91
2022-12-26T06:10:10.866Z,1003.88
2022-12-26T06:10:43.351Z,1003.87
2022-12-26T06:11:15.826Z,1003.89
2022-12-26T06:11:49.119Z,1003.88
2022-12-26T06:12:20.900Z,1003.87
2022-12-26T06:12:53.400Z,1003.86
2022-12-26T06:13:25.976Z,1003.85
2022-12-26T06:13:58.449Z,1003.86
2022-12-26T06:14:30.917Z,1003.85
2022-12-26T06:15:03.435Z,1003.83
2022-12-26T06:15:35.884Z,1003.82
2022-12-26T06:16:08.427Z,1003.79
2022-12-26T06:16:40.881Z,1003.74
2022-12-26T06:17:13.268Z,1003.72
2022-12-26T06:17:45.744Z,1003.73
2022-12-26T06:18:18.180Z,1003.77
2022-12-26T06:18:50.636Z,1003.73
2022-12-26T06:19:23.134Z,1003.73
2022-12-26T06:19:55.684Z,1003.68
2022-12-26T06:20:28.217Z,1003.63
2022-12-26T06:21:00.666Z,1003.61
2022-12-26T06:21:33.137Z,1003.60
2022-12-26T06:22:05.594Z,1003.58
2022-12-26T06:22:38.309Z,1003.56
2022-12-26T06:23:10.644Z,1003.55
2022-12-26T06:23:43.168Z,1003.53
2022-12-26T06:24:15.621Z,1003.55
2022-12-26T06:24:48.075Z,1003.56
2022-12-26T06:25:20.537Z,1003.55
2022-12-26T06:25:53.025Z,1003.52
2022-12-26T06:26:25.530Z,1003.51
2022-12-26T06:26:58.029Z,1003.51
2022-12-26T06:27:30.543Z,1003.48
2022-12-26T06:28:02.991Z,1003.46
2022-12-26T06:28:35.516Z,1003.48
2022-12-26T06:29:08.053Z,1003.49
2022-12-26T06:29:40.557Z,1003.48
2022-12-26T06:30:13.082Z,1003.48
2022-12-26T06:30:45.536Z,1003.48
2022-12-26T06:31:18.165Z,1003.48
2022-12-26T06:31:50.523Z,1003.47
2022-12-26T06:32:22.925Z,1003.48
2022-12-26T06:32:55.447Z,1003.45